createdAt,value
2023-05-10T00:00:56.530Z, 35.82
2023-05-10T00:01:56.582Z, 35.80
2023-05-10T00:02:56.661Z, 35.78
2023-05-10T00:03:56.569Z, 35.81
2023-05-10T00:04:56.603Z, 35.85
2023-05-10T00:05:56.554Z, 35.84
2023-05-10T00:06:56.595Z, 35.83
2023-05-10T00:07:56.578Z, 35.79
2023-05-10T00:08:56.586Z, 35.76
2023-05-10T00:09:56.663Z, 35.75
2023-05-10T00:10:56.626Z, 35.75
2023-05-10T00:11:56.679Z, 35.74
2023-05-10T00:12:56.670Z, 35.76
2023-05-10T00:13:56.727Z, 35.75
2023-05-10T00:14:56.715Z, 35.75
2023-05-10T00:15:56.762Z, 35.73
2023-05-10T00:16:56.804Z, 35.71
2023-05-10T00:17:56.745Z, 35.69
2023-05-10T00:18:56.761Z, 35.68
2023-05-10T00:19:56.745Z, 35.69
2023-05-10T00:20:56.837Z, 35.68
2023-05-10T00:21:56.810Z, 35.68
2023-05-10T00:22:56.826Z, 35.67
2023-05-10T00:23:56.828Z, 35.67
2023-05-10T00:24:56.818Z, 35.65
2023-05-10T00:25:56.878Z, 35.66
2023-05-10T00:26:56.857Z, 35.67
2023-05-10T00:27:56.914Z, 35.66
2023-05-10T00:28:56.890Z, 35.63
2023-05-10T00:29:56.891Z, 35.60
2023-05-10T00:30:56.889Z, 35.60
2023-05-10T00:31:56.907Z, 35.63
2023-05-10T00:32:57.040Z, 35.63
2023-05-10T00:33:56.931Z, 35.62
2023-05-10T00:34:56.977Z, 35.57
2023-05-10T00:35:56.958Z, 35.56
2023-05-10T00:36:56.983Z, 35.58
2023-05-10T00:37:56.984Z, 35.59
2023-05-10T00:38:56.978Z, 35.59
2023-05-10T00:39:57.002Z, 35.56
2023-05-10T00:40:57.029Z, 35.54
2023-05-10T00:41:57.035Z, 35.54
2023-05-10T00:42:57.040Z, 35.56
2023-05-10T00:43:57.056Z, 35.58
2023-05-10T00:44:57.054Z, 35.53
2023-05-10T00:45:57.189Z, 35.47
2023-05-10T00:46:57.129Z, 35.42
2023-05-10T00:47:57.175Z, 35.45
2023-05-10T00:48:57.122Z, 35.45
2023-05-10T00:49:57.125Z, 35.42
2023-05-10T00:50:57.132Z, 35.44
2023-05-10T00:51:57.145Z, 35.42
2023-05-10T00:52:57.167Z, 35.43
2023-05-10T00:53:57.177Z, 35.44
2023-05-10T00:54:57.186Z, 35.41
2023-05-10T00:55:57.198Z, 35.41
2023-05-10T00:56:57.260Z, 35.41
2023-05-10T00:57:57.246Z, 35.42
2023-05-10T00:58:57.309Z, 35.44
2023-05-10T00:59:57.274Z, 35.44
2023-05-10T01:00:57.382Z, 35.41
2023-05-10T01:01:57.272Z, 35.43
2023-05-10T01:02:57.496Z, 35.43
2023-05-10T01:03:57.323Z, 35.41
2023-05-10T01:04:57.398Z, 35.40
2023-05-10T01:05:57.353Z, 35.39
2023-05-10T01:06:57.358Z, 35.38
2023-05-10T01:07:57.396Z, 35.42
2023-05-10T01:08:57.388Z, 35.40
2023-05-10T01:09:57.441Z, 35.38
2023-05-10T01:10:57.424Z, 35.36
2023-05-10T01:11:57.512Z, 35.38
2023-05-10T01:12:57.498Z, 35.33
2023-05-10T01:13:57.425Z, 35.29
2023-05-10T01:14:57.521Z, 35.27
2023-05-10T01:15:57.529Z, 35.29
2023-05-10T01:16:57.553Z, 35.31
2023-05-10T01:17:57.544Z, 35.33
2023-05-10T01:18:57.533Z, 35.29
2023-05-10T01:19:57.515Z, 35.30
2023-05-10T01:20:57.603Z, 35.28
2023-05-10T01:21:57.575Z, 35.26
2023-05-10T01:22:57.571Z, 35.24
2023-05-10T01:23:57.574Z, 35.25
2023-05-10T01:24:57.589Z, 35.27
2023-05-10T01:25:57.606Z, 35.22
2023-05-10T01:26:57.597Z, 35.23
2023-05-10T01:27:57.676Z, 35.19
2023-05-10T01:28:57.654Z, 35.17
2023-05-10T01:30:10.021Z, 35.18
2023-05-10T01:30:57.657Z, 35.17
2023-05-10T01:31:57.652Z, 35.16
2023-05-10T01:32:57.699Z, 35.16
2023-05-10T01:33:57.679Z, 35.16
2023-05-10T01:34:57.747Z, 35.12
2023-05-10T01:35:57.720Z, 35.14
2023-05-10T01:36:57.762Z, 35.13
2023-05-10T01:37:57.752Z, 35.11
2023-05-10T01:38:57.802Z, 35.12
2023-05-10T01:39:57.781Z, 35.12
2023-05-10T01:40:57.781Z, 35.11
2023-05-10T01:41:57.828Z, 35.13
2023-05-10T01:42:57.803Z, 35.13
2023-05-10T01:43:57.864Z, 35.10
2023-05-10T01:44:57.837Z, 35.08
2023-05-10T01:45:57.836Z, 35.08
2023-05-10T01:46:57.942Z, 35.07
2023-05-10T01:47:57.897Z, 35.04
2023-05-10T01:48:57.907Z, 35.06
2023-05-10T01:49:57.871Z, 35.05
2023-05-10T01:50:57.908Z, 35.07
2023-05-10T01:51:57.905Z, 35.09
2023-05-10T01:52:57.919Z, 35.10
2023-05-10T01:53:57.901Z, 35.06
2023-05-10T01:54:57.953Z, 35.05
2023-05-10T01:55:57.941Z, 35.08
2023-05-10T01:56:57.987Z, 35.05
2023-05-10T01:57:57.956Z, 35.04
2023-05-10T01:58:57.965Z, 35.03
2023-05-10T01:59:57.999Z, 35.04
2023-05-10T02:00:58.025Z, 35.04
2023-05-10T02:01:58.100Z, 35.00
2023-05-10T02:02:58.102Z, 34.98
2023-05-10T02:03:58.172Z, 35.00
2023-05-10T02:04:58.065Z, 35.01
2023-05-10T02:05:58.078Z, 35.00
2023-05-10T02:06:58.102Z, 35.01
2023-05-10T02:07:58.088Z, 35.01
2023-05-10T02:08:58.172Z, 34.97
2023-05-10T02:09:58.150Z, 34.93
2023-05-10T02:10:58.147Z, 34.89
2023-05-10T02:11:58.141Z, 34.90
2023-05-10T02:12:58.177Z, 34.90
2023-05-10T02:13:58.177Z, 34.88
2023-05-10T02:14:58.157Z, 34.89
2023-05-10T02:15:58.219Z, 34.89
2023-05-10T02:16:58.222Z, 34.88
2023-05-10T02:17:58.242Z, 34.88
2023-05-10T02:18:58.210Z, 34.88
2023-05-10T02:19:58.218Z, 34.87
2023-05-10T02:20:58.292Z, 34.88
2023-05-10T02:21:58.289Z, 34.90
2023-05-10T02:22:58.354Z, 34.92
2023-05-10T02:23:58.328Z, 34.90
2023-05-10T02:24:58.388Z, 34.90
2023-05-10T02:25:58.385Z, 34.88
2023-05-10T02:26:58.355Z, 34.84
2023-05-10T02:27:58.402Z, 34.83
2023-05-10T02:28:58.369Z, 34.81
2023-05-10T02:29:58.366Z, 34.82
2023-05-10T02:30:58.373Z, 34.78
2023-05-10T02:31:58.487Z, 34.77
2023-05-10T02:32:58.422Z, 34.76
2023-05-10T02:33:58.402Z, 34.78
2023-05-10T02:34:58.415Z, 34.81
2023-05-10T02:35:58.419Z, 34.80
2023-05-10T02:36:58.435Z, 34.83
2023-05-10T02:37:58.433Z, 34.82
2023-05-10T02:38:58.472Z, 34.79
2023-05-10T02:39:58.469Z, 34.79
2023-05-10T02:40:58.496Z, 34.76
2023-05-10T02:41:58.495Z, 34.73
2023-05-10T02:42:58.496Z, 34.75
2023-05-10T02:43:58.578Z, 34.72
2023-05-10T02:44:58.558Z, 34.75
2023-05-10T02:45:58.618Z, 34.75
2023-05-10T02:46:58.617Z, 34.75
2023-05-10T02:47:58.625Z, 34.75
2023-05-10T02:48:58.633Z, 34.68
2023-05-10T02:49:58.616Z, 34.70
2023-05-10T02:50:58.686Z, 34.70
2023-05-10T02:51:58.649Z, 34.70
2023-05-10T02:52:58.652Z, 34.71
2023-05-10T02:53:58.659Z, 34.72
2023-05-10T02:54:58.648Z, 34.72
2023-05-10T02:55:58.668Z, 34.69
2023-05-10T02:56:58.672Z, 34.71
2023-05-10T02:57:58.691Z, 34.69
2023-05-10T02:58:58.712Z, 34.63
2023-05-10T02:59:58.794Z, 34.61
2023-05-10T03:00:58.771Z, 34.61
2023-05-10T03:01:58.801Z, 34.58
2023-05-10T03:02:58.833Z, 34.55
2023-05-10T03:03:58.801Z, 34.57
2023-05-10T03:04:58.900Z, 34.57
2023-05-10T03:05:58.804Z, 34.62
2023-05-10T03:06:58.811Z, 34.60
2023-05-10T03:07:58.795Z, 34.58
2023-05-10T03:08:58.806Z, 34.58
2023-05-10T03:09:58.831Z, 34.59
2023-05-10T03:10:58.912Z, 34.57
2023-05-10T03:11:58.895Z, 34.55
2023-05-10T03:12:58.913Z, 34.50
2023-05-10T03:13:58.900Z, 34.50
2023-05-10T03:14:58.892Z, 34.53
2023-05-10T03:15:59.006Z, 34.51
2023-05-10T03:16:58.923Z, 34.49
2023-05-10T03:17:58.966Z, 34.51
2023-05-10T03:18:58.949Z, 34.50
2023-05-10T03:19:58.952Z, 34.46
2023-05-10T03:20:59.045Z, 34.49
2023-05-10T03:21:59.016Z, 34.49
2023-05-10T03:22:59.018Z, 34.47
2023-05-10T03:23:59.012Z, 34.50
2023-05-10T03:24:59.016Z, 34.51
2023-05-10T03:25:59.061Z, 34.49
2023-05-10T03:26:59.042Z, 34.47
2023-05-10T03:27:59.129Z, 34.46
2023-05-10T03:28:59.088Z, 34.43
2023-05-10T03:29:59.151Z, 34.42
2023-05-10T03:30:59.176Z, 34.51
2023-05-10T03:31:59.119Z, 35.37
2023-05-10T03:32:59.186Z, 36.83
2023-05-10T03:33:59.119Z, 38.61
2023-05-10T03:34:59.132Z, 39.70
2023-05-10T03:35:59.132Z, 40.50
2023-05-10T03:36:59.237Z, 41.17
2023-05-10T03:37:59.199Z, 41.70
2023-05-10T03:38:59.210Z, 42.25
2023-05-10T03:39:59.195Z, 42.66
2023-05-10T03:40:59.245Z, 42.99
2023-05-10T03:41:59.242Z, 43.30
2023-05-10T03:42:59.304Z, 43.54
2023-05-10T03:43:59.316Z, 43.84
2023-05-10T03:44:59.268Z, 44.11
2023-05-10T03:45:59.359Z, 44.35
2023-05-10T03:46:59.341Z, 44.59
2023-05-10T03:47:59.387Z, 44.84
2023-05-10T03:48:59.352Z, 45.03
2023-05-10T03:49:59.334Z, 45.18
2023-05-10T03:50:59.344Z, 45.32
2023-05-10T03:51:59.339Z, 45.52
2023-05-10T03:52:59.415Z, 45.66
2023-05-10T03:53:59.383Z, 45.80
2023-05-10T03:54:59.419Z, 45.86
2023-05-10T03:55:59.416Z, 45.94
2023-05-10T03:56:59.447Z, 46.00
2023-05-10T03:57:59.438Z, 46.03
2023-05-10T03:58:59.427Z, 46.07
2023-05-10T03:59:59.469Z, 46.14
2023-05-10T04:00:59.444Z, 46.16
2023-05-10T04:01:59.607Z, 46.15
2023-05-10T04:02:59.702Z, 46.25
2023-05-10T04:03:59.619Z, 46.59
2023-05-10T04:04:59.585Z, 46.95
2023-05-10T04:05:59.585Z, 47.00
2023-05-10T04:06:59.569Z, 46.85
2023-05-10T04:07:59.546Z, 46.60
2023-05-10T04:08:59.576Z, 46.32
2023-05-10T04:09:59.589Z, 46.05
2023-05-10T04:10:59.573Z, 45.88
2023-05-10T04:11:59.641Z, 45.74
2023-05-10T04:12:59.651Z, 45.59
2023-05-10T04:13:59.643Z, 45.47
2023-05-10T04:14:59.637Z, 45.35
2023-05-10T04:15:59.729Z, 45.22
2023-05-10T04:16:59.747Z, 45.19
2023-05-10T04:17:59.742Z, 45.11
2023-05-10T04:18:59.690Z, 45.07
2023-05-10T04:19:59.692Z, 45.00
2023-05-10T04:20:59.721Z, 44.93
2023-05-10T04:21:59.698Z, 44.82
2023-05-10T04:22:59.772Z, 44.76
2023-05-10T04:23:59.747Z, 44.71
2023-05-10T04:24:59.762Z, 44.67
2023-05-10T04:25:59.757Z, 44.64
2023-05-10T04:26:59.759Z, 44.56
2023-05-10T04:27:59.766Z, 44.54
2023-05-10T04:28:59.772Z, 44.53
2023-05-10T04:29:59.813Z, 44.50
2023-05-10T04:30:59.897Z, 44.41
2023-05-10T04:31:59.816Z, 44.39
2023-05-10T04:32:59.841Z, 44.31
2023-05-10T04:33:59.847Z, 44.29
2023-05-10T04:34:59.864Z, 44.27
2023-05-10T04:35:59.871Z, 44.24
2023-05-10T04:36:59.899Z, 44.20
2023-05-10T04:37:59.897Z, 44.15
2023-05-10T04:38:59.909Z, 44.14
2023-05-10T04:39:59.933Z, 44.13
2023-05-10T04:40:59.970Z, 44.07
2023-05-10T04:41:59.949Z, 44.04
2023-05-10T04:43:00.013Z, 44.01
2023-05-10T04:43:59.993Z, 44.03
2023-05-10T04:45:00.005Z, 44.00
2023-05-10T04:46:00.012Z, 44.04
2023-05-10T04:47:00.023Z, 44.01
2023-05-10T04:48:00.179Z, 44.00
2023-05-10T04:49:00.074Z, 44.00
2023-05-10T04:50:00.127Z, 44.01
2023-05-10T04:51:00.096Z, 43.99
2023-05-10T04:52:00.206Z, 43.98
2023-05-10T04:53:00.181Z, 43.98
2023-05-10T04:54:06.601Z, 43.94
2023-05-10T04:55:00.145Z, 43.86
2023-05-10T04:56:00.161Z, 43.82
2023-05-10T04:57:00.225Z, 43.78
2023-05-10T04:58:00.195Z, 43.78
2023-05-10T04:59:00.230Z, 43.74
2023-05-10T05:00:00.213Z, 43.74
2023-05-10T05:01:00.252Z, 43.79
2023-05-10T05:02:00.288Z, 43.72
2023-05-10T05:03:00.317Z, 44.48
2023-05-10T05:04:00.296Z, 46.90
2023-05-10T05:05:00.293Z, 49.17
2023-05-10T05:06:00.314Z, 52.33
2023-05-10T05:07:00.276Z, 56.27
2023-05-10T05:08:00.341Z, 60.90
2023-05-10T05:09:00.336Z, 68.80
2023-05-10T05:10:00.336Z, 58.82
2023-05-10T05:11:00.345Z, 56.85
2023-05-10T05:12:00.321Z, 57.02
2023-05-10T05:13:00.394Z, 57.46
2023-05-10T05:14:00.435Z, 58.02
2023-05-10T05:15:00.419Z, 58.41
2023-05-10T05:16:00.436Z, 58.77
2023-05-10T05:17:00.394Z, 59.12
2023-05-10T05:18:00.489Z, 59.46
2023-05-10T05:19:00.412Z, 59.74
2023-05-10T05:20:00.447Z, 60.37
2023-05-10T05:21:00.417Z, 61.09
2023-05-10T05:22:00.435Z, 61.66
2023-05-10T05:23:00.457Z, 62.39
2023-05-10T05:24:00.480Z, 62.87
2023-05-10T05:25:00.490Z, 62.59
2023-05-10T05:26:00.560Z, 59.82
2023-05-10T05:27:00.546Z, 58.69
2023-05-10T05:28:00.560Z, 58.05
2023-05-10T05:29:00.548Z, 57.83
2023-05-10T05:30:00.547Z, 57.88
2023-05-10T05:31:00.561Z, 57.97
2023-05-10T05:32:00.604Z, 57.93
2023-05-10T05:33:00.680Z, 57.89
2023-05-10T05:34:00.574Z, 57.89
2023-05-10T05:35:00.578Z, 57.80
2023-05-10T05:36:00.601Z, 57.74
2023-05-10T05:37:00.650Z, 57.67
2023-05-10T05:38:00.686Z, 57.51
2023-05-10T05:39:00.741Z, 57.47
2023-05-10T05:40:00.665Z, 57.35
2023-05-10T05:41:00.720Z, 57.30
2023-05-10T05:42:00.721Z, 57.26
2023-05-10T05:43:00.707Z, 57.13
2023-05-10T05:44:00.720Z, 57.01
2023-05-10T05:45:00.718Z, 56.88
2023-05-10T05:46:00.822Z, 56.83
2023-05-10T05:47:00.760Z, 56.74
2023-05-10T05:48:00.900Z, 56.61
2023-05-10T05:49:00.788Z, 56.44
2023-05-10T05:50:00.805Z, 56.40
2023-05-10T05:51:00.811Z, 56.25
2023-05-10T05:52:00.810Z, 56.15
2023-05-10T05:53:00.816Z, 56.02
2023-05-10T05:54:00.836Z, 55.82
2023-05-10T05:55:00.858Z, 55.75
2023-05-10T05:56:00.897Z, 55.69
2023-05-10T05:57:01.555Z, 55.58
2023-05-10T05:58:00.933Z, 55.57
2023-05-10T05:59:00.949Z, 55.44
2023-05-10T06:00:00.937Z, 55.39
2023-05-10T06:01:00.941Z, 55.35
2023-05-10T06:02:00.987Z, 55.27
2023-05-10T06:03:01.134Z, 55.17
2023-05-10T06:04:01.060Z, 55.11
2023-05-10T06:05:00.991Z, 55.11
2023-05-10T06:06:00.984Z, 55.03
2023-05-10T06:07:00.983Z, 54.97
2023-05-10T06:08:01.034Z, 54.90
2023-05-10T06:09:01.013Z, 54.88
2023-05-10T06:10:01.129Z, 54.83
2023-05-10T06:11:01.093Z, 54.76
2023-05-10T06:12:01.127Z, 54.75
2023-05-10T06:13:01.188Z, 54.68
2023-05-10T06:14:01.158Z, 54.67
2023-05-10T06:15:01.125Z, 54.70
2023-05-10T06:16:01.153Z, 54.66
2023-05-10T06:17:01.187Z, 54.54
2023-05-10T06:18:01.203Z, 54.53
2023-05-10T06:19:01.134Z, 54.45
2023-05-10T06:20:01.155Z, 54.35
2023-05-10T06:21:01.254Z, 54.38
2023-05-10T06:22:01.221Z, 54.32
2023-05-10T06:23:01.259Z, 54.30
2023-05-10T06:25:01.236Z, 54.24
2023-05-10T06:26:01.234Z, 54.27
2023-05-10T06:27:01.262Z, 54.24
2023-05-10T06:28:01.307Z, 54.19
2023-05-10T06:29:01.272Z, 54.10
2023-05-10T06:30:12.265Z, 54.13
2023-05-10T06:31:01.394Z, 54.01
2023-05-10T06:32:01.305Z, 54.03
2023-05-10T06:33:01.359Z, 54.12
2023-05-10T06:34:01.323Z, 54.04
2023-05-10T06:35:01.421Z, 54.07
2023-05-10T06:36:01.361Z, 54.03
2023-05-10T06:37:01.437Z, 54.01
2023-05-10T06:38:01.425Z, 53.98
2023-05-10T06:39:01.461Z, 53.85
2023-05-10T06:40:01.444Z, 53.85
2023-05-10T06:41:01.496Z, 53.87
2023-05-10T06:42:01.453Z, 53.84
2023-05-10T06:43:01.490Z, 53.82
2023-05-10T06:44:01.492Z, 53.79
2023-05-10T06:45:01.478Z, 53.77
2023-05-10T06:46:01.525Z, 53.71
2023-05-10T06:47:01.498Z, 53.74
2023-05-10T06:48:01.495Z, 53.64
2023-05-10T06:49:01.509Z, 53.60
2023-05-10T06:50:01.595Z, 53.60
2023-05-10T06:51:01.553Z, 53.54
2023-05-10T06:52:01.603Z, 53.54
2023-05-10T06:53:01.568Z, 53.48
2023-05-10T06:54:01.631Z, 53.46
2023-05-10T06:55:01.612Z, 53.53
2023-05-10T06:56:01.627Z, 53.53
2023-05-10T06:57:03.579Z, 53.49
2023-05-10T06:58:01.610Z, 53.43
2023-05-10T06:59:01.718Z, 53.36
2023-05-10T07:00:01.652Z, 53.32
2023-05-10T07:01:01.767Z, 53.35
2023-05-10T07:02:01.758Z, 53.25
2023-05-10T07:03:01.736Z, 53.28
2023-05-10T07:04:01.702Z, 53.32
2023-05-10T07:05:14.776Z, 53.35
2023-05-10T07:06:01.712Z, 53.34
2023-05-10T07:07:01.725Z, 53.25
2023-05-10T07:08:01.751Z, 53.28
2023-05-10T07:09:01.745Z, 53.29
2023-05-10T07:10:01.761Z, 53.25
2023-05-10T07:11:01.780Z, 53.17
2023-05-10T07:12:02.180Z, 53.17
2023-05-10T07:13:01.956Z, 53.19
2023-05-10T07:14:01.835Z, 53.15
2023-05-10T07:15:01.884Z, 53.15
2023-05-10T07:16:01.897Z, 53.11
2023-05-10T07:17:01.882Z, 52.99
2023-05-10T07:18:01.966Z, 53.05
2023-05-10T07:19:01.896Z, 52.96
2023-05-10T07:20:01.909Z, 52.99
2023-05-10T07:21:01.964Z, 53.07
2023-05-10T07:22:01.914Z, 52.98
2023-05-10T07:23:01.918Z, 52.96
2023-05-10T07:24:01.988Z, 52.87
2023-05-10T07:25:01.968Z, 52.88
2023-05-10T07:26:01.953Z, 52.82
2023-05-10T07:27:01.958Z, 52.87
2023-05-10T07:28:02.058Z, 52.78
2023-05-10T07:29:02.013Z, 52.75
2023-05-10T07:30:02.068Z, 52.73
2023-05-10T07:31:02.127Z, 52.78
2023-05-10T07:32:02.132Z, 52.74
2023-05-10T07:33:02.128Z, 52.75
2023-05-10T07:34:02.050Z, 52.76
2023-05-10T07:35:02.077Z, 52.74
2023-05-10T07:36:02.057Z, 52.80
2023-05-10T07:37:02.162Z, 52.74
2023-05-10T07:38:02.106Z, 52.73
2023-05-10T07:39:02.143Z, 52.72
2023-05-10T07:40:02.133Z, 52.64
2023-05-10T07:41:02.201Z, 52.66
2023-05-10T07:42:02.164Z, 52.62
2023-05-10T07:43:02.168Z, 52.61
2023-05-10T07:44:02.161Z, 52.56
2023-05-10T07:45:02.164Z, 52.58
2023-05-10T07:46:02.318Z, 52.51
2023-05-10T07:47:02.228Z, 52.58
2023-05-10T07:48:02.298Z, 52.51
2023-05-10T07:49:02.231Z, 52.48
2023-05-10T07:50:02.276Z, 52.42
2023-05-10T07:51:02.261Z, 52.46
2023-05-10T07:52:02.316Z, 52.36
2023-05-10T07:53:02.286Z, 52.35
2023-05-10T07:54:02.287Z, 52.37
2023-05-10T07:55:02.359Z, 52.33
2023-05-10T07:56:02.389Z, 52.28
2023-05-10T07:57:02.405Z, 52.24
2023-05-10T07:58:02.374Z, 52.31
2023-05-10T07:59:02.422Z, 52.32
2023-05-10T08:00:02.394Z, 52.23
2023-05-10T08:01:02.407Z, 52.20
2023-05-10T08:02:02.432Z, 52.23
2023-05-10T08:03:02.540Z, 52.21
2023-05-10T08:04:02.604Z, 52.24
2023-05-10T08:05:02.417Z, 52.23
2023-05-10T08:06:02.430Z, 52.26
2023-05-10T08:07:02.449Z, 52.28
2023-05-10T08:08:02.521Z, 52.25
2023-05-10T08:09:02.491Z, 52.21
2023-05-10T08:10:02.543Z, 52.13
2023-05-10T08:11:02.524Z, 52.12
2023-05-10T08:12:02.567Z, 52.11
2023-05-10T08:13:02.553Z, 52.05
2023-05-10T08:14:02.535Z, 52.06
2023-05-10T08:15:02.527Z, 52.09
2023-05-10T08:16:02.668Z, 51.99
2023-05-10T08:17:02.592Z, 52.03
2023-05-10T08:18:02.629Z, 52.00
2023-05-10T08:19:02.781Z, 51.92
2023-05-10T08:20:02.618Z, 51.95
2023-05-10T08:21:02.638Z, 51.92
2023-05-10T08:22:02.670Z, 51.92
2023-05-10T08:23:02.634Z, 51.88
2023-05-10T08:24:02.666Z, 51.85
2023-05-10T08:25:02.703Z, 51.86
2023-05-10T08:26:02.703Z, 51.82
2023-05-10T08:27:02.693Z, 51.76
2023-05-10T08:28:02.771Z, 51.82
2023-05-10T08:29:02.755Z, 51.73
2023-05-10T08:30:02.783Z, 51.77
2023-05-10T08:31:02.835Z, 51.78
2023-05-10T08:32:02.782Z, 51.72
2023-05-10T08:33:02.817Z, 51.74
2023-05-10T08:34:02.776Z, 51.76
2023-05-10T08:35:02.782Z, 51.73
2023-05-10T08:36:02.803Z, 51.63
2023-05-10T08:37:02.813Z, 51.65
2023-05-10T08:38:02.857Z, 51.65
2023-05-10T08:39:02.820Z, 51.61
2023-05-10T08:40:02.848Z, 51.59
2023-05-10T08:41:02.859Z, 51.63
2023-05-10T08:42:02.857Z, 51.59
2023-05-10T08:43:02.944Z, 51.58
2023-05-10T08:44:02.910Z, 51.62
2023-05-10T08:45:02.960Z, 51.55
2023-05-10T08:46:02.918Z, 51.60
2023-05-10T08:47:02.991Z, 51.48
2023-05-10T08:48:03.072Z, 51.51
2023-05-10T08:49:02.961Z, 51.43
2023-05-10T08:50:02.985Z, 51.47
2023-05-10T08:51:02.978Z, 51.38
2023-05-10T08:52:03.081Z, 51.40
2023-05-10T08:53:03.044Z, 51.40
2023-05-10T08:54:03.106Z, 51.29
2023-05-10T08:55:03.084Z, 51.28
2023-05-10T08:56:03.087Z, 51.33
2023-05-10T08:57:03.072Z, 51.20
2023-05-10T08:58:03.114Z, 51.23
2023-05-10T08:59:03.130Z, 51.21
2023-05-10T09:00:03.103Z, 51.19
2023-05-10T09:01:03.148Z, 51.26
2023-05-10T09:02:03.127Z, 51.27
2023-05-10T09:03:03.234Z, 51.19
2023-05-10T09:04:03.363Z, 51.23
2023-05-10T09:05:03.285Z, 51.18
2023-05-10T09:06:03.195Z, 51.11
2023-05-10T09:07:03.194Z, 51.18
2023-05-10T09:08:03.260Z, 51.13
2023-05-10T09:09:03.242Z, 51.18
2023-05-10T09:10:03.275Z, 51.14
2023-05-10T09:11:03.245Z, 51.02
2023-05-10T09:12:03.301Z, 51.04
2023-05-10T09:13:03.285Z, 51.08
2023-05-10T09:14:03.334Z, 51.05
2023-05-10T09:15:03.308Z, 51.01
2023-05-10T09:16:10.194Z, 51.03
2023-05-10T09:17:03.384Z, 50.98
2023-05-10T09:18:03.448Z, 50.89
2023-05-10T09:19:03.424Z, 50.93
2023-05-10T09:20:03.334Z, 50.90
2023-05-10T09:21:03.397Z, 50.82
2023-05-10T09:22:03.383Z, 50.90
2023-05-10T09:23:03.383Z, 50.80
2023-05-10T09:24:03.373Z, 50.77
2023-05-10T09:25:03.374Z, 50.87
2023-05-10T09:26:03.384Z, 50.75
2023-05-10T09:27:03.394Z, 50.77
2023-05-10T09:28:03.456Z, 50.76
2023-05-10T09:29:03.436Z, 50.80
2023-05-10T09:30:03.431Z, 50.73
2023-05-10T09:31:03.541Z, 50.68
2023-05-10T09:32:03.451Z, 50.65
2023-05-10T09:33:03.557Z, 50.67
2023-05-10T09:34:03.504Z, 50.62
2023-05-10T09:35:03.534Z, 50.58
2023-05-10T09:36:03.515Z, 50.56
2023-05-10T09:37:03.540Z, 50.51
2023-05-10T09:38:03.533Z, 50.50
2023-05-10T09:39:03.543Z, 50.48
2023-05-10T09:40:03.640Z, 50.58
2023-05-10T09:41:03.616Z, 50.62
2023-05-10T09:42:03.670Z, 50.51
2023-05-10T09:43:03.643Z, 50.53
2023-05-10T09:44:03.635Z, 50.46
2023-05-10T09:45:03.643Z, 50.47
2023-05-10T09:46:03.689Z, 50.52
2023-05-10T09:47:03.711Z, 50.49
2023-05-10T09:48:03.711Z, 50.56
2023-05-10T09:49:03.740Z, 50.51
2023-05-10T09:50:03.711Z, 50.45
2023-05-10T09:51:03.728Z, 50.38
2023-05-10T09:52:03.816Z, 50.39
2023-05-10T09:53:03.730Z, 50.31
2023-05-10T09:54:03.783Z, 50.28
2023-05-10T09:55:03.795Z, 50.18
2023-05-10T09:56:03.774Z, 50.20
2023-05-10T09:57:03.800Z, 50.22
2023-05-10T09:58:03.816Z, 50.25
2023-05-10T09:59:03.796Z, 50.25
2023-05-10T10:00:03.859Z, 50.25
2023-05-10T10:01:03.810Z, 50.31
2023-05-10T10:02:03.952Z, 51.64
2023-05-10T10:03:03.832Z, 52.71
2023-05-10T10:04:03.898Z, 53.02
2023-05-10T10:05:04.033Z, 53.27
2023-05-10T10:06:03.882Z, 53.31
2023-05-10T10:07:03.969Z, 53.37
2023-05-10T10:08:03.936Z, 53.31
2023-05-10T10:09:03.979Z, 53.34
2023-05-10T10:10:03.955Z, 53.39
2023-05-10T10:11:03.989Z, 53.45
2023-05-10T10:12:03.951Z, 53.33
2023-05-10T10:13:03.952Z, 53.07
2023-05-10T10:14:03.953Z, 52.69
2023-05-10T10:15:03.962Z, 52.51
2023-05-10T10:16:04.014Z, 52.60
2023-05-10T10:17:08.293Z, 52.81
2023-05-10T10:18:04.108Z, 52.84
2023-05-10T10:19:04.146Z, 52.56
2023-05-10T10:20:04.031Z, 52.04
2023-05-10T10:21:04.052Z, 51.76
2023-05-10T10:22:04.053Z, 51.60
2023-05-10T10:23:04.139Z, 51.47
2023-05-10T10:24:04.104Z, 51.40
2023-05-10T10:25:04.145Z, 51.32
2023-05-10T10:26:04.115Z, 51.26
2023-05-10T10:27:04.189Z, 51.22
2023-05-10T10:28:04.159Z, 51.16
2023-05-10T10:29:04.205Z, 50.99
2023-05-10T10:30:04.196Z, 50.94
2023-05-10T10:31:04.235Z, 50.70
2023-05-10T10:32:04.214Z, 50.68
2023-05-10T10:33:13.297Z, 50.62
2023-05-10T10:34:04.344Z, 50.62
2023-05-10T10:35:04.273Z, 50.60
2023-05-10T10:36:04.291Z, 50.60
2023-05-10T10:37:04.267Z, 50.55
2023-05-10T10:38:04.283Z, 50.46
2023-05-10T10:39:04.405Z, 50.41
2023-05-10T10:40:04.292Z, 50.32
2023-05-10T10:41:04.338Z, 50.34
2023-05-10T10:42:04.315Z, 50.34
2023-05-10T10:43:04.375Z, 50.27
2023-05-10T10:44:04.365Z, 50.24
2023-05-10T10:45:04.339Z, 50.23
2023-05-10T10:46:04.354Z, 50.24
2023-05-10T10:47:04.388Z, 50.20
2023-05-10T10:48:04.458Z, 50.20
2023-05-10T10:49:04.404Z, 50.20
2023-05-10T10:50:04.444Z, 50.09
2023-05-10T10:51:04.438Z, 50.15
2023-05-10T10:52:04.484Z, 50.18
2023-05-10T10:53:04.497Z, 50.12
2023-05-10T10:54:04.461Z, 50.05
2023-05-10T10:55:04.448Z, 50.05
2023-05-10T10:56:04.461Z, 50.06
2023-05-10T10:57:04.526Z, 50.05
2023-05-10T10:58:04.532Z, 50.01
2023-05-10T10:59:04.585Z, 49.98
2023-05-10T11:00:04.539Z, 49.93
2023-05-10T11:01:04.634Z, 49.91
2023-05-10T11:02:04.562Z, 49.90
2023-05-10T11:03:04.647Z, 49.91
2023-05-10T11:04:04.618Z, 49.90
2023-05-10T11:05:04.586Z, 49.81
2023-05-10T11:06:04.581Z, 49.78
2023-05-10T11:07:04.653Z, 49.76
2023-05-10T11:08:04.628Z, 49.81
2023-05-10T11:09:04.675Z, 49.78
2023-05-10T11:10:04.648Z, 49.71
2023-05-10T11:11:04.722Z, 49.74
2023-05-10T11:12:04.674Z, 49.66
2023-05-10T11:13:04.713Z, 49.63
2023-05-10T11:14:04.702Z, 49.62
2023-05-10T11:15:04.738Z, 49.68
2023-05-10T11:16:04.729Z, 49.61
2023-05-10T11:17:04.817Z, 49.57
2023-05-10T11:18:04.778Z, 49.55
2023-05-10T11:19:04.859Z, 49.52
2023-05-10T11:20:04.763Z, 49.52
2023-05-10T11:21:04.772Z, 49.47
2023-05-10T11:22:04.797Z, 49.38
2023-05-10T11:23:04.798Z, 49.43
2023-05-10T11:24:04.893Z, 49.45
2023-05-10T11:25:04.869Z, 49.45
2023-05-10T11:26:04.858Z, 49.49
2023-05-10T11:27:04.868Z, 49.43
2023-05-10T11:28:04.861Z, 49.40
2023-05-10T11:29:04.949Z, 49.37
2023-05-10T11:30:05.141Z, 49.34
2023-05-10T11:31:04.949Z, 49.34
2023-05-10T11:32:04.911Z, 49.28
2023-05-10T11:33:05.008Z, 49.24
2023-05-10T11:34:04.926Z, 49.24
2023-05-10T11:35:04.989Z, 49.20
2023-05-10T11:36:04.981Z, 49.27
2023-05-10T11:37:04.991Z, 49.27
2023-05-10T11:38:05.019Z, 49.27
2023-05-10T11:39:05.060Z, 49.26
2023-05-10T11:40:05.104Z, 49.26
2023-05-10T11:41:05.077Z, 49.28
2023-05-10T11:42:05.077Z, 49.23
2023-05-10T11:43:05.074Z, 49.19
2023-05-10T11:44:05.081Z, 49.18
2023-05-10T11:45:05.105Z, 49.25
2023-05-10T11:46:05.160Z, 49.19
2023-05-10T11:47:05.181Z, 49.20
2023-05-10T11:48:05.262Z, 49.16
2023-05-10T11:49:05.618Z, 49.15
2023-05-10T11:50:05.167Z, 49.17
2023-05-10T11:51:05.167Z, 49.09
2023-05-10T11:52:05.181Z, 49.04
2023-05-10T11:53:05.192Z, 48.96
2023-05-10T11:54:05.227Z, 48.98
2023-05-10T11:55:05.234Z, 49.01
2023-05-10T11:56:05.237Z, 48.99
2023-05-10T11:57:05.266Z, 48.99
2023-05-10T11:58:05.228Z, 48.95
2023-05-10T11:59:05.313Z, 48.89
2023-05-10T12:00:05.359Z, 48.86
2023-05-10T12:01:05.293Z, 48.78
2023-05-10T12:02:05.378Z, 48.78
2023-05-10T12:03:05.393Z, 48.80
2023-05-10T12:04:05.646Z, 48.80
2023-05-10T12:05:05.968Z, 48.86
2023-05-10T12:06:05.434Z, 48.87
2023-05-10T12:07:05.397Z, 48.89
2023-05-10T12:08:05.390Z, 48.85
2023-05-10T12:09:05.409Z, 48.80
2023-05-10T12:10:05.445Z, 48.78
2023-05-10T12:11:05.420Z, 48.74
2023-05-10T12:12:05.437Z, 48.72
2023-05-10T12:13:05.464Z, 48.67
2023-05-10T12:14:05.473Z, 48.64
2023-05-10T12:15:05.564Z, 48.63
2023-05-10T12:16:05.581Z, 48.67
2023-05-10T12:17:05.557Z, 48.66
2023-05-10T12:18:05.588Z, 48.59
2023-05-10T12:19:05.652Z, 48.62
2023-05-10T12:20:05.564Z, 48.58
2023-05-10T12:21:05.552Z, 48.59
2023-05-10T12:22:05.559Z, 48.60
2023-05-10T12:23:05.635Z, 48.64
2023-05-10T12:24:05.656Z, 48.67
2023-05-10T12:25:05.610Z, 48.63
2023-05-10T12:26:05.613Z, 48.57
2023-05-10T12:27:05.611Z, 48.53
2023-05-10T12:28:05.664Z, 48.49
2023-05-10T12:29:05.713Z, 48.43
2023-05-10T12:30:05.679Z, 48.53